Time;durP1;ratioP1;P1;durP2;ratioP2;P2;SDS_P1;SDS_P2;PMS_P1;PMS_P2;Temp;Humidity;BMP_temperature;BMP_pressure;BME280_temperature;BME280_humidity;BME280_pressure;Samples;Min_cycle;Max_cycle;Signal;HPM_P1;HPM_P2
2023/02/15 00:01:52;;;;;;;12.80;9.20;;;;;;;;;;5094574;28;20269;-86
2023/02/15 00:04:21;;;;;;;13.40;9.00;;;;;;;;;;5095047;28;20207;-85
2023/02/15 00:06:48;;;;;;;16.07;9.40;;;;;;;;;;5113771;28;20623;-86
2023/02/15 00:09:17;;;;;;;13.00;8.73;;;;;;;;;;5113609;28;20581;-85
2023/02/15 00:11:49;;;;;;;13.83;9.60;;;;;;;;;;5083419;28;20208;-85
2023/02/15 00:14:19;;;;;;;14.13;9.47;;;;;;;;;;5094872;28;20203;-85
2023/02/15 00:16:46;;;;;;;12.97;9.37;;;;;;;;;;5113171;28;20199;-85
2023/02/15 00:19:14;;;;;;;13.57;10.23;;;;;;;;;;5081912;28;20211;-85
2023/02/15 00:21:41;;;;;;;9.83;8.53;;;;;;;;;;5112951;28;20207;-86
2023/02/15 00:24:10;;;;;;;10.97;8.90;;;;;;;;;;5075361;28;20201;-86
2023/02/15 00:26:41;;;;;;;13.13;9.23;;;;;;;;;;5106845;28;20206;-86
2023/02/15 00:29:09;;;;;;;13.93;10.63;;;;;;;;;;5101197;28;20264;-86
2023/02/15 00:31:36;;;;;;;13.63;9.90;;;;;;;;;;5093216;28;20624;-86
2023/02/15 00:34:04;;;;;;;11.53;9.37;;;;;;;;;;5086133;28;20714;-86
2023/02/15 00:36:31;;;;;;;13.87;10.23;;;;;;;;;;5089904;28;20227;-87
2023/02/15 00:38:59;;;;;;;11.57;9.17;;;;;;;;;;5112088;28;20207;-86
2023/02/15 00:41:26;;;;;;;13.50;10.27;;;;;;;;;;5096315;28;20196;-87
2023/02/15 00:43:57;;;;;;;13.40;10.07;;;;;;;;;;5102500;28;20203;-87
2023/02/15 00:46:25;;;;;;;14.40;9.93;;;;;;;;;;5113163;28;20288;-86
2023/02/15 00:48:51;;;;;;;12.80;9.43;;;;;;;;;;5078026;28;20212;-87
2023/02/15 00:51:20;;;;;;;9.60;8.03;;;;;;;;;;5113246;28;20662;-86
2023/02/15 00:53:47;;;;;;;14.30;9.80;;;;;;;;;;5074784;28;20219;-86
2023/02/15 00:56:15;;;;;;;12.20;8.37;;;;;;;;;;5111195;28;20227;-87
2023/02/15 00:58:42;;;;;;;12.53;9.37;;;;;;;;;;5094450;28;20728;-86
2023/02/15 01:01:12;;;;;;;12.07;9.23;;;;;;;;;;5112729;28;20215;-86
2023/02/15 01:03:41;;;;;;;12.17;9.60;;;;;;;;;;5091518;28;20788;-87
2023/02/15 01:06:08;;;;;;;12.93;8.43;;;;;;;;;;5112247;28;20714;-87
2023/02/15 01:08:35;;;;;;;14.30;9.63;;;;;;;;;;5113054;28;20247;-87
2023/02/15 01:11:05;;;;;;;10.60;9.37;;;;;;;;;;5074003;28;20192;-87
2023/02/15 01:13:32;;;;;;;12.40;10.30;;;;;;;;;;5105651;28;20674;-88
2023/02/15 01:15:59;;;;;;;11.70;8.97;;;;;;;;;;5080624;28;20227;-86
2023/02/15 01:18:28;;;;;;;10.50;8.23;;;;;;;;;;5077229;28;20211;-87
2023/02/15 01:20:55;;;;;;;10.97;9.00;;;;;;;;;;5086388;28;20259;-86
2023/02/15 01:23:22;;;;;;;15.17;9.97;;;;;;;;;;5085191;28;20208;-86
2023/02/15 01:25:49;;;;;;;11.17;8.93;;;;;;;;;;5094143;28;20207;-86
2023/02/15 01:28:16;;;;;;;13.43;9.77;;;;;;;;;;5111721;28;20207;-86
2023/02/15 01:30:43;;;;;;;10.80;8.70;;;;;;;;;;5112263;28;20207;-86
2023/02/15 01:33:17;;;;;;;11.00;9.67;;;;;;;;;;5091848;28;20207;-87
2023/02/15 01:35:47;;;;;;;12.83;10.03;;;;;;;;;;5083841;28;20239;-87
2023/02/15 01:38:14;;;;;;;18.30;9.50;;;;;;;;;;5112229;28;20215;-86
2023/02/15 01:40:41;;;;;;;10.33;7.93;;;;;;;;;;5083610;28;20273;-86
2023/02/15 01:43:11;;;;;;;11.97;9.17;;;;;;;;;;5069962;28;20200;-86
2023/02/15 01:45:39;;;;;;;11.97;8.70;;;;;;;;;;5091574;28;20716;-87
2023/02/15 01:48:20;;;;;;;11.83;9.70;;;;;;;;;;5091617;28;20204;-86
2023/02/15 01:50:52;;;;;;;13.67;8.80;;;;;;;;;;5098328;28;20206;-87
2023/02/15 01:53:23;;;;;;;10.87;8.97;;;;;;;;;;5098901;28;20234;-86
2023/02/15 01:55:53;;;;;;;9.17;8.13;;;;;;;;;;5111073;28;20223;-87
2023/02/15 01:58:20;;;;;;;12.17;8.80;;;;;;;;;;5111455;28;20211;-87
2023/02/15 02:00:48;;;;;;;12.47;9.10;;;;;;;;;;5093559;28;20203;-86
2023/02/15 02:03:15;;;;;;;12.50;9.87;;;;;;;;;;5111701;28;20215;-86
2023/02/15 02:05:42;;;;;;;13.67;9.47;;;;;;;;;;5080038;28;20208;-87
2023/02/15 02:08:11;;;;;;;13.47;9.17;;;;;;;;;;5093752;28;20575;-86
2023/02/15 02:10:39;;;;;;;13.30;9.50;;;;;;;;;;5093348;28;20708;-86
2023/02/15 02:13:07;;;;;;;11.03;8.50;;;;;;;;;;5093932;28;20212;-87
2023/02/15 02:15:42;;;;;;;13.10;9.17;;;;;;;;;;5092890;28;20663;-86
2023/02/15 02:18:22;;;;;;;13.73;9.27;;;;;;;;;;5081900;28;20647;-86
2023/02/15 02:21:14;;;;;;;12.10;8.50;;;;;;;;;;5086940;28;20208;-86
2023/02/15 02:24:07;;;;;;;12.13;9.30;;;;;;;;;;5112511;28;20215;-86
2023/02/15 02:27:10;;;;;;;12.50;9.00;;;;;;;;;;5101770;28;20299;-86
2023/02/15 02:29:56;;;;;;;11.63;8.80;;;;;;;;;;5084891;28;20211;-86
2023/02/15 02:32:52;;;;;;;10.47;8.27;;;;;;;;;;5094974;28;20245;-87
2023/02/15 02:35:24;;;;;;;13.37;8.50;;;;;;;;;;5114807;28;20227;-86
2023/02/15 02:37:59;;;;;;;10.33;8.77;;;;;;;;;;5115887;28;20280;-86
2023/02/15 02:40:32;;;;;;;13.90;9.60;;;;;;;;;;5097570;28;20210;-87
2023/02/15 02:43:03;;;;;;;12.23;9.33;;;;;;;;;;5115702;28;20241;-86
2023/02/15 02:45:35;;;;;;;12.20;8.10;;;;;;;;;;5096986;28;20786;-86
2023/02/15 02:48:05;;;;;;;10.83;9.13;;;;;;;;;;5114905;28;20261;-87
2023/02/15 02:50:35;;;;;;;11.83;8.83;;;;;;;;;;5115362;28;20256;-87
2023/02/15 02:53:02;;;;;;;11.10;8.33;;;;;;;;;;5095654;28;20208;-87
2023/02/15 02:55:31;;;;;;;11.33;9.30;;;;;;;;;;5096787;28;20291;-87
2023/02/15 02:58:05;;;;;;;12.00;7.73;;;;;;;;;;5101405;28;20211;-87
2023/02/15 03:00:36;;;;;;;12.53;9.43;;;;;;;;;;5096923;28;20669;-86
2023/02/15 03:03:05;;;;;;;10.83;7.33;;;;;;;;;;5114614;28;20212;-87
2023/02/15 03:05:35;;;;;;;11.60;8.70;;;;;;;;;;5113185;28;20246;-86
2023/02/15 03:08:05;;;;;;;11.83;7.60;;;;;;;;;;5096597;28;20605;-86
2023/02/15 03:10:33;;;;;;;12.27;8.40;;;;;;;;;;5082675;28;20294;-86
2023/02/15 03:13:00;;;;;;;9.87;7.93;;;;;;;;;;5096404;28;20645;-86
2023/02/15 03:16:25;;;;;;;11.67;8.77;;;;;;;;;;5114411;28;20207;-86
2023/02/15 03:18:19;;;;;;;10.43;8.53;;;;;;;;;;5092986;28;20208;-86
2023/02/15 03:20:47;;;;;;;13.17;9.27;;;;;;;;;;5095720;28;20657;-87
2023/02/15 03:23:18;;;;;;;11.03;8.37;;;;;;;;;;5095879;28;20211;-87
2023/02/15 03:25:47;;;;;;;12.10;7.90;;;;;;;;;;5100388;28;20211;-86
2023/02/15 03:28:18;;;;;;;13.57;7.83;;;;;;;;;;5096175;28;20207;-86
2023/02/15 03:30:49;;;;;;;13.60;8.90;;;;;;;;;;5114046;28;20203;-85
2023/02/15 03:33:16;;;;;;;11.40;8.63;;;;;;;;;;5096133;28;20288;-85
2023/02/15 03:35:50;;;;;;;11.20;8.17;;;;;;;;;;5113925;28;20223;-87
2023/02/15 03:38:21;;;;;;;12.20;8.97;;;;;;;;;;5092108;28;20197;-88
2023/02/15 03:43:39;;;;;;;9.57;7.20;;;;;;;;;;5086290;28;20211;-88
2023/02/15 03:46:09;;;;;;;12.57;8.57;;;;;;;;;;5094518;28;20219;-88
2023/02/15 03:48:39;;;;;;;11.83;8.53;;;;;;;;;;5094092;28;20344;-87
2023/02/15 03:53:58;;;;;;;9.53;7.43;;;;;;;;;;5113751;28;20638;-86
2023/02/15 03:56:25;;;;;;;9.90;7.10;;;;;;;;;;5113529;28;20581;-85
2023/02/15 04:04:26;;;;;;;12.37;8.77;;;;;;;;;;5111723;28;20199;-84
2023/02/15 04:06:54;;;;;;;9.43;7.80;;;;;;;;;;5100796;28;21029;-83
2023/02/15 04:12:06;;;;;;;13.67;8.77;;;;;;;;;;5095949;28;20632;-83
2023/02/15 04:17:17;;;;;;;10.47;7.60;;;;;;;;;;5099282;28;20312;-82
2023/02/15 04:25:14;;;;;;;9.93;7.97;;;;;;;;;;5083801;28;20218;-83
2023/02/15 04:27:43;;;;;;;11.27;8.40;;;;;;;;;;5093935;28;20252;-82
2023/02/15 04:30:12;;;;;;;9.60;7.10;;;;;;;;;;5093985;28;20617;-83
2023/02/15 04:32:39;;;;;;;10.53;8.33;;;;;;;;;;5112099;28;20674;-81
2023/02/15 04:35:07;;;;;;;14.87;9.73;;;;;;;;;;5108169;28;20206;-83
2023/02/15 04:37:35;;;;;;;14.43;9.80;;;;;;;;;;5092083;28;20241;-82
2023/02/15 04:40:02;;;;;;;13.73;8.97;;;;;;;;;;5092591;28;20298;-82
2023/02/15 04:42:31;;;;;;;14.40;10.07;;;;;;;;;;5111860;28;20233;-81
2023/02/15 04:44:58;;;;;;;12.27;9.37;;;;;;;;;;5098299;28;20226;-82
2023/02/15 04:47:25;;;;;;;12.97;9.73;;;;;;;;;;5112843;28;20266;-82
2023/02/15 04:49:52;;;;;;;14.30;11.53;;;;;;;;;;5112451;28;20211;-82
2023/02/15 04:52:19;;;;;;;11.53;9.53;;;;;;;;;;5099335;28;20254;-82
2023/02/15 04:54:47;;;;;;;12.27;8.57;;;;;;;;;;5111766;28;20542;-82
2023/02/15 04:57:15;;;;;;;12.73;8.10;;;;;;;;;;5112257;28;20227;-82
2023/02/15 04:59:42;;;;;;;10.60;8.70;;;;;;;;;;5092934;28;20215;-83
2023/02/15 05:02:09;;;;;;;11.57;8.87;;;;;;;;;;5092699;28;20195;-82
2023/02/15 05:04:36;;;;;;;12.97;8.23;;;;;;;;;;5111341;28;20273;-82
2023/02/15 05:07:03;;;;;;;10.63;8.10;;;;;;;;;;5097737;28;20678;-82
2023/02/15 05:09:30;;;;;;;14.67;10.10;;;;;;;;;;5111688;28;20207;-82
2023/02/15 05:11:58;;;;;;;13.53;9.90;;;;;;;;;;5086790;28;20199;-83
2023/02/15 05:14:25;;;;;;;15.17;10.77;;;;;;;;;;5094549;28;20682;-83
2023/02/15 05:16:53;;;;;;;12.30;9.47;;;;;;;;;;5106085;28;20230;-82
2023/02/15 05:19:20;;;;;;;12.67;9.60;;;;;;;;;;5098060;28;20653;-82
2023/02/15 05:21:47;;;;;;;13.67;9.43;;;;;;;;;;5111754;28;20215;-82
2023/02/15 05:29:43;;;;;;;15.97;10.23;;;;;;;;;;5111924;28;20210;-81
2023/02/15 05:32:10;;;;;;;13.93;9.97;;;;;;;;;;5111504;28;20203;-81
2023/02/15 05:34:37;;;;;;;14.33;9.77;;;;;;;;;;5097947;28;20273;-83
2023/02/15 05:37:07;;;;;;;13.77;9.70;;;;;;;;;;5102432;28;20223;-81
2023/02/15 05:39:34;;;;;;;13.13;9.67;;;;;;;;;;5097609;28;20590;-81
2023/02/15 05:42:02;;;;;;;13.20;8.80;;;;;;;;;;5111660;28;20244;-81
2023/02/15 05:44:29;;;;;;;11.93;8.87;;;;;;;;;;5110854;28;20218;-81
2023/02/15 05:46:56;;;;;;;11.27;9.60;;;;;;;;;;5103087;28;20632;-81
2023/02/15 05:49:23;;;;;;;10.30;8.37;;;;;;;;;;5106430;28;20207;-81
2023/02/15 05:51:49;;;;;;;13.47;8.83;;;;;;;;;;5102894;28;20251;-81
2023/02/15 05:54:16;;;;;;;13.80;8.53;;;;;;;;;;5091003;28;20695;-81
2023/02/15 05:56:43;;;;;;;11.17;9.37;;;;;;;;;;5091514;28;20228;-81
2023/02/15 05:59:12;;;;;;;11.33;8.97;;;;;;;;;;5097466;28;20670;-82
2023/02/15 06:01:39;;;;;;;11.17;8.70;;;;;;;;;;5105991;28;20244;-81
2023/02/15 06:04:05;;;;;;;10.67;8.40;;;;;;;;;;5111335;28;20199;-81
2023/02/15 06:06:34;;;;;;;11.17;8.40;;;;;;;;;;5105954;28;20261;-81
2023/02/15 06:09:01;;;;;;;13.20;8.33;;;;;;;;;;5108738;28;20299;-81
2023/02/15 06:11:27;;;;;;;12.23;8.67;;;;;;;;;;5094663;28;20196;-85
2023/02/15 06:13:54;;;;;;;14.73;8.60;;;;;;;;;;5112102;28;20253;-81
2023/02/15 06:16:22;;;;;;;17.07;9.60;;;;;;;;;;5115427;28;20203;-82
2023/02/15 06:18:49;;;;;;;14.70;9.60;;;;;;;;;;5115061;28;20241;-82
2023/02/15 06:21:16;;;;;;;46.30;25.10;;;;;;;;;;5115040;28;20215;-82
2023/02/15 06:23:42;;;;;;;26.57;18.53;;;;;;;;;;5102034;28;20257;-82
2023/02/15 06:26:09;;;;;;;19.07;13.80;;;;;;;;;;5115457;28;20207;-83
2023/02/15 06:28:37;;;;;;;24.53;15.03;;;;;;;;;;5101605;28;20286;-83
2023/02/15 06:31:04;;;;;;;24.47;14.87;;;;;;;;;;5115184;28;20268;-84
2023/02/15 06:33:33;;;;;;;17.17;12.40;;;;;;;;;;5101049;28;20264;-84
2023/02/15 06:36:01;;;;;;;13.40;9.77;;;;;;;;;;5115046;28;20221;-84
2023/02/15 06:38:28;;;;;;;12.23;9.47;;;;;;;;;;5115094;28;20255;-84
2023/02/15 06:40:54;;;;;;;22.10;15.47;;;;;;;;;;5114886;28;20211;-84
2023/02/15 06:43:21;;;;;;;18.03;13.00;;;;;;;;;;5100805;28;20204;-84
2023/02/15 06:45:48;;;;;;;19.73;13.60;;;;;;;;;;5114939;28;20235;-85
2023/02/15 06:48:15;;;;;;;25.73;15.93;;;;;;;;;;5115175;28;20269;-85
2023/02/15 06:50:43;;;;;;;18.03;14.90;;;;;;;;;;5114452;28;20199;-85
2023/02/15 06:53:10;;;;;;;15.53;9.47;;;;;;;;;;5114634;28;20204;-85
2023/02/15 06:55:36;;;;;;;14.20;11.77;;;;;;;;;;5102019;28;20246;-85
2023/02/15 06:58:04;;;;;;;13.20;10.50;;;;;;;;;;5114362;28;20331;-85
2023/02/15 07:00:30;;;;;;;12.70;9.40;;;;;;;;;;5115158;28;20199;-86
2023/02/15 07:02:58;;;;;;;11.30;8.73;;;;;;;;;;5101129;28;20204;-83
2023/02/15 07:05:30;;;;;;;10.57;8.87;;;;;;;;;;5114209;28;20207;-85
2023/02/15 07:07:58;;;;;;;15.07;9.33;;;;;;;;;;5113977;28;20199;-85
2023/02/15 07:10:25;;;;;;;13.07;9.37;;;;;;;;;;5099906;28;20200;-85
2023/02/15 07:12:50;;;;;;;11.07;8.17;;;;;;;;;;5106163;28;20698;-85
2023/02/15 07:15:20;;;;;;;13.53;10.57;;;;;;;;;;5108689;28;20200;-84
2023/02/15 07:17:47;;;;;;;17.53;11.20;;;;;;;;;;5114418;28;20302;-84
2023/02/15 07:20:16;;;;;;;19.47;13.63;;;;;;;;;;5113806;28;20731;-84
2023/02/15 07:22:44;;;;;;;15.77;11.57;;;;;;;;;;5114043;28;20235;-83
2023/02/15 07:25:12;;;;;;;19.07;14.23;;;;;;;;;;5111408;28;20272;-84
2023/02/15 07:27:40;;;;;;;15.43;11.73;;;;;;;;;;5103143;28;20207;-82
2023/02/15 07:30:09;;;;;;;16.63;12.33;;;;;;;;;;5113909;28;20218;-83
2023/02/15 07:32:36;;;;;;;21.03;15.10;;;;;;;;;;5113816;28;20214;-82
2023/02/15 07:35:02;;;;;;;15.43;11.50;;;;;;;;;;5114114;28;20196;-82
2023/02/15 07:37:29;;;;;;;13.90;11.43;;;;;;;;;;5113861;28;20219;-82
2023/02/15 07:39:56;;;;;;;16.77;11.37;;;;;;;;;;5113840;28;20211;-82
2023/02/15 07:42:24;;;;;;;15.03;11.60;;;;;;;;;;5102868;28;20208;-82
2023/02/15 07:44:52;;;;;;;20.87;11.33;;;;;;;;;;5093452;28;20240;-81
2023/02/15 07:47:19;;;;;;;15.43;10.20;;;;;;;;;;5104855;28;20223;-82
2023/02/15 07:49:45;;;;;;;11.37;9.23;;;;;;;;;;5108595;28;20197;-81
2023/02/15 07:52:12;;;;;;;13.50;9.83;;;;;;;;;;5104517;28;20211;-82
2023/02/15 07:54:41;;;;;;;12.47;8.87;;;;;;;;;;5095043;28;20204;-82
2023/02/15 07:57:08;;;;;;;13.67;9.07;;;;;;;;;;5105398;28;20234;-81
2023/02/15 07:59:37;;;;;;;13.73;9.50;;;;;;;;;;5099627;28;20689;-82
2023/02/15 08:02:03;;;;;;;12.37;9.10;;;;;;;;;;5100054;28;20197;-82
2023/02/15 08:04:30;;;;;;;13.87;9.90;;;;;;;;;;5093054;28;20200;-81
2023/02/15 08:06:57;;;;;;;12.40;9.43;;;;;;;;;;5105853;28;20215;-81
2023/02/15 08:09:24;;;;;;;19.37;10.53;;;;;;;;;;5099472;28;20199;-81
2023/02/15 08:11:51;;;;;;;12.37;9.53;;;;;;;;;;5113113;28;20206;-81
2023/02/15 08:14:20;;;;;;;14.87;9.70;;;;;;;;;;5092987;28;20612;-81
2023/02/15 08:16:49;;;;;;;12.17;9.60;;;;;;;;;;5106126;28;20210;-82
2023/02/15 08:19:17;;;;;;;14.17;10.80;;;;;;;;;;5098929;28;20199;-81
2023/02/15 08:21:45;;;;;;;14.53;9.43;;;;;;;;;;5112634;28;20592;-81
2023/02/15 08:24:14;;;;;;;14.70;9.70;;;;;;;;;;5113018;28;20264;-81
2023/02/15 08:26:41;;;;;;;12.80;9.57;;;;;;;;;;5110854;28;20294;-81
2023/02/15 08:29:11;;;;;;;15.07;9.50;;;;;;;;;;5101276;28;20630;-81
2023/02/15 08:31:40;;;;;;;12.20;9.93;;;;;;;;;;5099697;28;20215;-81
2023/02/15 08:34:10;;;;;;;13.93;10.27;;;;;;;;;;5112694;28;20208;-82
2023/02/15 08:36:37;;;;;;;18.07;11.83;;;;;;;;;;5108495;28;20223;-81
2023/02/15 08:39:07;;;;;;;13.53;10.77;;;;;;;;;;5092227;28;20697;-82
2023/02/15 08:41:35;;;;;;;12.27;9.20;;;;;;;;;;5110515;28;20195;-83
2023/02/15 08:44:05;;;;;;;13.10;9.43;;;;;;;;;;5112517;28;20207;-81
2023/02/15 08:46:34;;;;;;;11.20;9.53;;;;;;;;;;5112310;28;20273;-81
2023/02/15 08:49:00;;;;;;;12.60;10.47;;;;;;;;;;5113105;28;20211;-82
2023/02/15 08:51:30;;;;;;;13.63;10.40;;;;;;;;;;5106275;28;20254;-81
2023/02/15 08:53:58;;;;;;;16.37;11.53;;;;;;;;;;5092325;28;20210;-81
2023/02/15 08:56:27;;;;;;;11.83;8.43;;;;;;;;;;5098685;28;20590;-81
2023/02/15 08:58:54;;;;;;;10.93;9.27;;;;;;;;;;5111609;28;20219;-81
2023/02/15 09:01:22;;;;;;;11.60;9.40;;;;;;;;;;5099591;28;20268;-81
2023/02/15 09:03:52;;;;;;;12.10;9.20;;;;;;;;;;5111378;28;20202;-81
2023/02/15 09:06:19;;;;;;;10.93;9.30;;;;;;;;;;5099568;28;20299;-82
2023/02/15 09:08:47;;;;;;;9.70;8.30;;;;;;;;;;5110297;28;20199;-80
2023/02/15 09:11:16;;;;;;;12.87;9.67;;;;;;;;;;5099820;28;20228;-81
2023/02/15 09:13:44;;;;;;;14.13;10.07;;;;;;;;;;5110456;28;20199;-81
2023/02/15 09:16:11;;;;;;;13.50;9.37;;;;;;;;;;5100385;28;20657;-81
2023/02/15 09:18:39;;;;;;;14.23;9.40;;;;;;;;;;5111742;28;20306;-81
2023/02/15 09:21:08;;;;;;;12.00;8.83;;;;;;;;;;5111784;28;20633;-86
2023/02/15 09:23:34;;;;;;;15.40;9.40;;;;;;;;;;5111693;28;20212;-80
2023/02/15 09:26:08;;;;;;;11.73;9.47;;;;;;;;;;5112165;28;20207;-81
2023/02/15 09:28:35;;;;;;;10.07;8.43;;;;;;;;;;5112135;28;20275;-81
2023/02/15 09:31:07;;;;;;;12.37;9.27;;;;;;;;;;5111722;28;20203;-81
2023/02/15 09:33:35;;;;;;;9.70;8.03;;;;;;;;;;5112056;28;20203;-82
2023/02/15 09:36:02;;;;;;;10.27;8.57;;;;;;;;;;5111679;28;20199;-81
2023/02/15 09:38:29;;;;;;;12.03;8.67;;;;;;;;;;5111655;28;20291;-80
2023/02/15 09:41:07;;;;;;;17.07;9.87;;;;;;;;;;5098248;28;20666;-81
2023/02/15 09:43:37;;;;;;;9.97;7.97;;;;;;;;;;5099016;28;20685;-81
2023/02/15 09:46:16;;;;;;;9.97;8.27;;;;;;;;;;5111330;28;20219;-81
2023/02/15 09:48:45;;;;;;;12.23;9.87;;;;;;;;;;5111465;28;20207;-81
2023/02/15 09:51:37;;;;;;;10.10;8.80;;;;;;;;;;5097981;28;20196;-81
2023/02/15 09:54:14;;;;;;;11.47;8.67;;;;;;;;;;5111039;28;20671;-81
2023/02/15 09:56:46;;;;;;;13.40;9.23;;;;;;;;;;5102595;28;20203;-81
2023/02/15 09:59:19;;;;;;;10.57;8.43;;;;;;;;;;5104814;28;20236;-81
2023/02/15 10:01:52;;;;;;;15.23;9.60;;;;;;;;;;5101819;28;20191;-81
2023/02/15 10:04:33;;;;;;;11.47;7.80;;;;;;;;;;5110930;28;20195;-81
2023/02/15 10:07:06;;;;;;;9.00;7.67;;;;;;;;;;5098195;28;20210;-80
2023/02/15 10:09:45;;;;;;;12.13;8.50;;;;;;;;;;5098982;28;20203;-81
2023/02/15 10:12:23;;;;;;;10.17;8.53;;;;;;;;;;5097263;28;20196;-81
2023/02/15 10:15:15;;;;;;;11.83;9.20;;;;;;;;;;5110994;28;20208;-80
2023/02/15 10:17:52;;;;;;;12.40;9.90;;;;;;;;;;5103934;28;20216;-81
2023/02/15 10:20:26;;;;;;;12.57;8.73;;;;;;;;;;5092980;28;20204;-80
2023/02/15 10:23:04;;;;;;;13.53;10.57;;;;;;;;;;5100978;28;20212;-80
2023/02/15 10:25:37;;;;;;;10.27;7.87;;;;;;;;;;5104543;28;20204;-81
2023/02/15 10:28:09;;;;;;;9.87;8.10;;;;;;;;;;5104182;28;20577;-80
2023/02/15 10:30:43;;;;;;;14.70;10.47;;;;;;;;;;5111027;28;20211;-80
2023/02/15 10:33:19;;;;;;;8.77;7.83;;;;;;;;;;5111555;28;20284;-84
2023/02/15 10:35:55;;;;;;;11.87;8.40;;;;;;;;;;5101489;28;20214;-81
2023/02/15 10:38:28;;;;;;;11.87;9.60;;;;;;;;;;5091152;28;20603;-80
2023/02/15 10:41:06;;;;;;;9.93;8.13;;;;;;;;;;5091157;28;20204;-80
2023/02/15 10:43:50;;;;;;;10.53;9.30;;;;;;;;;;5100169;28;20210;-80
2023/02/15 10:46:29;;;;;;;9.63;7.87;;;;;;;;;;5100727;28;20272;-81
2023/02/15 10:49:28;;;;;;;12.13;9.73;;;;;;;;;;5103050;28;20265;-80
2023/02/15 10:52:10;;;;;;;12.00;7.87;;;;;;;;;;5092164;28;20214;-80
2023/02/15 10:54:41;;;;;;;11.47;8.70;;;;;;;;;;5109503;28;20208;-80
2023/02/15 10:57:15;;;;;;;12.03;8.57;;;;;;;;;;5107210;28;20192;-80
2023/02/15 11:00:04;;;;;;;11.70;8.70;;;;;;;;;;5094504;28;20235;-81
2023/02/15 11:02:43;;;;;;;12.20;8.80;;;;;;;;;;5093827;28;20200;-80
2023/02/15 11:05:26;;;;;;;9.00;7.53;;;;;;;;;;5106481;28;20210;-81
2023/02/15 11:07:54;;;;;;;9.80;7.87;;;;;;;;;;5093899;28;20208;-81
2023/02/15 11:10:27;;;;;;;11.97;8.60;;;;;;;;;;5108593;28;20199;-81
2023/02/15 11:12:56;;;;;;;11.57;9.20;;;;;;;;;;5114676;28;20203;-81
2023/02/15 11:15:27;;;;;;;8.67;7.50;;;;;;;;;;5099171;28;20212;-80
2023/02/15 11:17:58;;;;;;;10.03;8.23;;;;;;;;;;5103725;28;20203;-80
2023/02/15 11:20:28;;;;;;;8.90;7.03;;;;;;;;;;5113585;28;20203;-80
2023/02/15 11:22:56;;;;;;;7.63;6.80;;;;;;;;;;5114027;28;20659;-80
2023/02/15 11:25:26;;;;;;;8.13;5.40;;;;;;;;;;5099943;28;20208;-79
2023/02/15 11:27:53;;;;;;;9.90;8.40;;;;;;;;;;5102089;28;20726;-80
2023/02/15 11:30:22;;;;;;;11.37;7.07;;;;;;;;;;5111890;28;20747;-80
2023/02/15 11:32:54;;;;;;;9.97;7.13;;;;;;;;;;5101855;28;20671;-80
2023/02/15 11:35:25;;;;;;;10.03;7.97;;;;;;;;;;5112541;28;20605;-81
2023/02/15 11:37:55;;;;;;;9.03;7.63;;;;;;;;;;5113827;28;20203;-81
2023/02/15 11:40:25;;;;;;;8.73;7.23;;;;;;;;;;5113484;28;20678;-81
2023/02/15 11:42:56;;;;;;;10.97;8.20;;;;;;;;;;5113300;28;20206;-81
2023/02/15 11:45:27;;;;;;;8.77;7.23;;;;;;;;;;5113739;28;20272;-80
2023/02/15 11:47:55;;;;;;;9.37;6.80;;;;;;;;;;5113530;28;20690;-80
2023/02/15 11:50:24;;;;;;;8.97;7.23;;;;;;;;;;5113310;28;20203;-81
2023/02/15 11:52:52;;;;;;;8.40;6.97;;;;;;;;;;5095642;28;20200;-80
2023/02/15 11:55:20;;;;;;;9.13;7.10;;;;;;;;;;5103809;28;20211;-80
2023/02/15 11:57:53;;;;;;;7.83;7.07;;;;;;;;;;5113194;28;20202;-81
2023/02/15 12:00:27;;;;;;;8.27;7.00;;;;;;;;;;5112780;28;20740;-81
2023/02/15 12:02:55;;;;;;;9.30;6.30;;;;;;;;;;5106612;28;20208;-81
2023/02/15 12:05:25;;;;;;;8.20;6.93;;;;;;;;;;5092720;28;20209;-82
2023/02/15 12:07:54;;;;;;;10.63;7.90;;;;;;;;;;5093080;28;20196;-81
2023/02/15 12:10:24;;;;;;;8.17;6.93;;;;;;;;;;5092816;28;20214;-81
2023/02/15 12:13:10;;;;;;;12.27;7.20;;;;;;;;;;5092610;28;20208;-81
2023/02/15 12:15:37;;;;;;;8.17;6.17;;;;;;;;;;5092017;28;20201;-80
2023/02/15 12:18:08;;;;;;;10.00;7.00;;;;;;;;;;5103635;28;20200;-80
2023/02/15 12:20:36;;;;;;;9.77;6.73;;;;;;;;;;5099063;28;20268;-80
2023/02/15 12:23:04;;;;;;;10.47;6.03;;;;;;;;;;5112598;28;20661;-81
2023/02/15 12:25:37;;;;;;;10.53;5.80;;;;;;;;;;5098705;28;20644;-80
2023/02/15 12:28:17;;;;;;;11.60;8.37;;;;;;;;;;5099955;28;20212;-80
2023/02/15 12:30:44;;;;;;;8.47;6.23;;;;;;;;;;5100414;28;20207;-80
2023/02/15 12:33:17;;;;;;;8.23;6.73;;;;;;;;;;5112551;28;20200;-81
2023/02/15 12:35:49;;;;;;;8.17;6.53;;;;;;;;;;5112357;28;20663;-81
2023/02/15 12:38:25;;;;;;;8.13;7.13;;;;;;;;;;5112337;28;20702;-81
2023/02/15 12:40:59;;;;;;;10.00;7.03;;;;;;;;;;5100783;28;20207;-81
2023/02/15 12:43:27;;;;;;;10.33;6.97;;;;;;;;;;5098188;28;20206;-81
2023/02/15 12:45:54;;;;;;;13.43;7.60;;;;;;;;;;5099389;28;20301;-81
2023/02/15 12:48:22;;;;;;;10.03;7.63;;;;;;;;;;5111821;28;20216;-81
2023/02/15 12:50:50;;;;;;;10.20;7.33;;;;;;;;;;5112287;28;20200;-80
2023/02/15 12:53:20;;;;;;;8.63;6.67;;;;;;;;;;5112539;28;20209;-82
2023/02/15 12:55:55;;;;;;;9.00;6.50;;;;;;;;;;5111847;28;20576;-81
2023/02/15 12:58:25;;;;;;;8.37;7.27;;;;;;;;;;5103734;28;20197;-81
2023/02/15 13:01:04;;;;;;;12.10;9.53;;;;;;;;;;5093961;28;20589;-81
2023/02/15 13:03:33;;;;;;;8.27;7.07;;;;;;;;;;5112371;28;20199;-81
2023/02/15 13:06:01;;;;;;;9.33;7.17;;;;;;;;;;5111243;28;20257;-81
2023/02/15 13:08:29;;;;;;;9.00;7.17;;;;;;;;;;5111763;28;20208;-81
2023/02/15 13:10:58;;;;;;;9.90;6.87;;;;;;;;;;5106622;28;20196;-80
2023/02/15 13:13:27;;;;;;;7.00;5.43;;;;;;;;;;5091738;28;20733;-80
2023/02/15 13:15:56;;;;;;;9.97;7.40;;;;;;;;;;5090943;28;20654;-81
2023/02/15 13:18:30;;;;;;;7.37;5.87;;;;;;;;;;5091612;28;20211;-81
2023/02/15 13:21:01;;;;;;;7.57;5.53;;;;;;;;;;5099237;28;20220;-81
2023/02/15 13:23:30;;;;;;;5.90;5.40;;;;;;;;;;5111499;28;20635;-81
2023/02/15 13:25:58;;;;;;;6.63;5.93;;;;;;;;;;5111902;28;20267;-81
2023/02/15 13:28:32;;;;;;;6.97;4.70;;;;;;;;;;5111998;28;20626;-81
2023/02/15 13:30:59;;;;;;;5.90;5.20;;;;;;;;;;5101079;28;20200;-80
2023/02/15 13:33:28;;;;;;;9.10;6.03;;;;;;;;;;5095143;28;20203;-81
2023/02/15 13:36:03;;;;;;;8.83;6.47;;;;;;;;;;5111736;28;20206;-81
2023/02/15 13:38:54;;;;;;;19.67;5.37;;;;;;;;;;5111589;28;20205;-80
2023/02/15 13:41:25;;;;;;;5.47;4.23;;;;;;;;;;5108709;28;20208;-81
2023/02/15 13:44:00;;;;;;;7.07;6.37;;;;;;;;;;5111257;28;20264;-81
2023/02/15 13:46:40;;;;;;;4.80;4.40;;;;;;;;;;5111189;28;20577;-81
2023/02/15 13:49:16;;;;;;;8.57;5.17;;;;;;;;;;5111392;28;20706;-81
2023/02/15 13:51:52;;;;;;;8.77;5.27;;;;;;;;;;5098333;28;20224;-81
2023/02/15 13:55:03;;;;;;;5.40;4.23;;;;;;;;;;5097771;28;20195;-81
2023/02/15 13:57:42;;;;;;;4.93;4.37;;;;;;;;;;5090864;28;20736;-80
2023/02/15 14:00:17;;;;;;;5.97;4.80;;;;;;;;;;5111071;28;20223;-81
2023/02/15 14:03:00;;;;;;;4.90;4.40;;;;;;;;;;5106269;28;20659;-80
2023/02/15 14:05:33;;;;;;;6.43;5.07;;;;;;;;;;5104715;28;20199;-80
2023/02/15 14:08:09;;;;;;;7.10;5.37;;;;;;;;;;5098772;28;20635;-80
2023/02/15 14:10:44;;;;;;;9.13;5.53;;;;;;;;;;5110678;28;20199;-80
2023/02/15 14:13:50;;;;;;;8.00;6.87;;;;;;;;;;5100338;28;20331;-80
2023/02/15 14:16:22;;;;;;;8.00;6.07;;;;;;;;;;5085776;28;20215;-80
2023/02/15 14:18:53;;;;;;;6.70;6.00;;;;;;;;;;5111037;28;20267;-80
2023/02/15 14:21:27;;;;;;;4.50;4.10;;;;;;;;;;5114783;28;20698;-80
2023/02/15 14:24:08;;;;;;;9.10;5.03;;;;;;;;;;5096138;28;20669;-81
2023/02/15 14:26:42;;;;;;;4.50;4.10;;;;;;;;;;5108712;28;20226;-81
2023/02/15 14:29:17;;;;;;;6.37;4.50;;;;;;;;;;5114772;28;20291;-80
2023/02/15 14:31:47;;;;;;;5.27;4.03;;;;;;;;;;5115005;28;20253;-80
2023/02/15 14:34:21;;;;;;;4.77;4.37;;;;;;;;;;5104275;28;20208;-80
2023/02/15 14:36:48;;;;;;;20.43;18.23;;;;;;;;;;5113030;28;20237;-81
2023/02/15 14:42:16;;;;;;;18.07;16.30;;;;;;;;;;5103473;28;20624;-81
2023/02/15 14:44:46;;;;;;;24.53;22.13;;;;;;;;;;5100810;28;20201;-81
2023/02/15 14:47:19;;;;;;;7.93;5.27;;;;;;;;;;5114481;28;20215;-80
2023/02/15 14:49:45;;;;;;;14.63;8.70;;;;;;;;;;5114922;28;20210;-80
2023/02/15 14:52:13;;;;;;;9.03;5.63;;;;;;;;;;5114472;28;20203;-81
2023/02/15 14:55:05;;;;;;;8.87;7.67;;;;;;;;;;5114307;28;20207;-81
2023/02/15 14:57:33;;;;;;;7.73;6.07;;;;;;;;;;5098960;28;20211;-81
2023/02/15 15:00:06;;;;;;;11.67;9.63;;;;;;;;;;5094093;28;20768;-80
2023/02/15 15:02:43;;;;;;;9.93;8.83;;;;;;;;;;5097446;28;20199;-80
2023/02/15 15:05:16;;;;;;;8.77;6.00;;;;;;;;;;5114731;28;20195;-80
2023/02/15 15:07:45;;;;;;;5.67;5.07;;;;;;;;;;5094494;28;20648;-80
2023/02/15 15:10:39;;;;;;;8.80;7.27;;;;;;;;;;5107644;28;20558;-82
2023/02/15 15:13:43;;;;;;;13.07;10.83;;;;;;;;;;5103915;28;20203;-80
2023/02/15 15:16:50;;;;;;;10.90;7.80;;;;;;;;;;5110481;28;20743;-80
2023/02/15 15:20:07;;;;;;;39.63;22.10;;;;;;;;;;5015687;28;20702;-81
2023/02/15 15:22:34;;;;;;;10.90;7.17;;;;;;;;;;5103717;28;20231;-80
2023/02/15 15:25:02;;;;;;;50.20;30.73;;;;;;;;;;5112511;28;20195;-81